Observations for SAINT-BRIEUC ARMOR, France (LFRT)

LFRT 220730Z AUTO 19006KT 130V260 9999 -RA NSC 12/10 Q1021  
LFRT 220700Z AUTO 18006KT 140V230 CAVOK 12/09 Q1021 
LFRT 220630Z AUTO 18004KT 140V220 CAVOK 12/09 Q1021 
LFRT 220600Z AUTO 17005KT 150V210 CAVOK 12/09 Q1021 
LFRT 212100Z AUTO 24003KT CAVOK 12/08 Q1023 
LFRT 212030Z AUTO 25006KT CAVOK 12/07 Q1023 
LFRT 212000Z AUTO 24004KT CAVOK 12/07 Q1022 
LFRT 211930Z AUTO 24005KT CAVOK 12/07 Q1022 
LFRT 211900Z AUTO 26002KT CAVOK 12/07 Q1022 
LFRT 211830Z AUTO 28004KT CAVOK 12/07 Q1022 
LFRT 211800Z AUTO 29006KT CAVOK 14/07 Q1021 
LFRT 211730Z AUTO 29009KT CAVOK 15/06 Q1021 
LFRT 211700Z AUTO 27010KT 230V290 9999 FEW045 SCT056 16/07 Q1020
LFRT 211630Z AUTO 27013KT 9999 SCT046 BKN058 16/06 Q1020
LFRT 211600Z AUTO 30010KT 270V330 CAVOK 17/06 Q1020 
LFRT 211530Z AUTO 29012KT CAVOK 16/06 Q1020 
LFRT 211500Z AUTO 28012KT 9999 FEW047 17/05 Q1020   
LFRT 211430Z AUTO 27015KT 9999 SCT048 BKN058 17/05 Q1020
LFRT 211400Z AUTO 28012KT CAVOK 16/07 Q1020 
LFRT 211330Z AUTO 29014KT 260V330 9999 BKN043 16/07 Q1019   
LFRT 211300Z AUTO 29015KT 260V320 9999 FEW007 SCT040 BKN052 17/07 Q1019 
LFRT 211230Z AUTO 29013KT 260V330 9999 SCT036 SCT074 16/07 Q1019
LFRT 211200Z AUTO 28013KT CAVOK 15/09 Q1018 
LFRT 211130Z AUTO 29013KT 9999 FEW049 BKN060 OVC076 14/08 Q1018 
LFRT 211100Z AUTO 29015KT 9999 FEW042 BKN050 BKN060 15/07 Q1018 
LFRT 211030Z AUTO 28013KT 250V310 9999 BKN039 BKN052 16/08 Q1017
LFRT 211000Z AUTO 28013KT 9999 FEW031 SCT040 BKN049 15/08 Q1017 
LFRT 210930Z AUTO 27013KT 9999 FEW028 14/08 Q1017   
LFRT 210900Z AUTO 28010KT 9999 FEW028 14/09 Q1016   
LFRT 210830Z AUTO 28009KT 9999 FEW034 SCT047 13/09 Q1016
LFRT 210800Z AUTO 27008KT 9999 FEW046 13/10 Q1015   
LFRT 210730Z AUTO 26006KT CAVOK 12/10 Q1015 
LFRT 210700Z AUTO 28007KT 9999 FEW046 11/09 Q1014